createdAt,value
2023-10-17T00:00:29.776Z,7.21
2023-10-17T00:02:56.741Z,7.23
2023-10-17T00:05:24.708Z,7.26
2023-10-17T00:07:51.453Z,7.31
2023-10-17T00:10:21.458Z,7.33
2023-10-17T00:12:54.096Z,7.35
2023-10-17T00:15:30.551Z,7.39
2023-10-17T00:18:05.148Z,7.43
2023-10-17T00:20:38.933Z,7.41
2023-10-17T00:23:07.820Z,7.40
2023-10-17T00:25:34.698Z,7.44
2023-10-17T00:28:01.293Z,7.47
2023-10-17T00:30:31.429Z,7.49
2023-10-17T00:32:58.372Z,7.49
2023-10-17T00:35:27.368Z,7.52
2023-10-17T00:37:58.542Z,7.54
2023-10-17T00:40:43.960Z,7.59
2023-10-17T00:43:13.050Z,7.60
2023-10-17T00:45:39.982Z,7.63
2023-10-17T00:48:18.477Z,7.68
2023-10-17T00:50:51.640Z,7.68
2023-10-17T00:53:19.510Z,7.65
2023-10-17T00:55:52.230Z,7.68
2023-10-17T00:58:19.790Z,7.71
2023-10-17T01:01:06.695Z,7.69
2023-10-17T01:03:33.200Z,7.71
2023-10-17T01:06:14.847Z,7.73
2023-10-17T01:08:45.790Z,7.76
2023-10-17T01:11:29.204Z,7.74
2023-10-17T01:13:58.524Z,7.75
2023-10-17T01:16:28.460Z,7.78
2023-10-17T01:19:01.956Z,7.78
2023-10-17T01:21:28.477Z,7.80
2023-10-17T01:23:56.282Z,7.79
2023-10-17T01:26:25.012Z,7.78
2023-10-17T01:28:54.172Z,7.81
2023-10-17T01:31:24.412Z,7.82
2023-10-17T01:34:01.584Z,7.85
2023-10-17T01:36:28.195Z,7.86
2023-10-17T01:38:56.100Z,7.87
2023-10-17T01:41:22.880Z,7.87
2023-10-17T01:43:50.572Z,7.90
2023-10-17T01:46:29.847Z,7.86
2023-10-17T01:49:01.306Z,7.85
2023-10-17T01:51:28.562Z,7.89
2023-10-17T01:53:55.081Z,7.88
2023-10-17T01:56:30.949Z,7.90
2023-10-17T01:59:00.844Z,7.86
2023-10-17T02:01:27.550Z,7.85
2023-10-17T02:03:54.446Z,7.85
2023-10-17T02:06:23.426Z,7.89
2023-10-17T02:08:49.995Z,7.88
2023-10-17T02:11:25.177Z,7.91
2023-10-17T02:13:57.546Z,7.92
2023-10-17T02:16:25.634Z,7.89
2023-10-17T02:18:52.848Z,7.88
2023-10-17T02:21:21.993Z,7.88
2023-10-17T02:23:52.517Z,7.85
2023-10-17T02:26:23.622Z,7.86
2023-10-17T02:29:00.524Z,7.89
2023-10-17T02:31:34.016Z,7.90
2023-10-17T02:34:00.572Z,7.90
2023-10-17T02:36:27.679Z,7.89
2023-10-17T02:38:54.469Z,7.91
2023-10-17T02:41:21.035Z,7.87
2023-10-17T02:43:48.453Z,7.92
2023-10-17T02:46:15.816Z,7.93
2023-10-17T02:48:48.956Z,7.95
2023-10-17T02:51:24.726Z,7.98
2023-10-17T02:53:53.180Z,8.01
2023-10-17T02:56:23.139Z,8.00
2023-10-17T02:58:52.067Z,7.99
2023-10-17T03:01:19.489Z,8.00
2023-10-17T03:03:52.622Z,8.00
2023-10-17T03:06:19.804Z,7.99
2023-10-17T03:08:52.831Z,7.97
2023-10-17T03:11:36.706Z,7.98
2023-10-17T03:14:23.632Z,7.98
2023-10-17T03:16:53.820Z,7.99
2023-10-17T03:19:28.422Z,7.99
2023-10-17T03:21:56.054Z,7.95
2023-10-17T03:24:40.108Z,7.97
2023-10-17T03:27:08.955Z,7.96
2023-10-17T03:29:36.894Z,8.00
2023-10-17T03:32:12.922Z,7.99
2023-10-17T03:34:45.424Z,7.96
2023-10-17T03:37:39.776Z,7.97
2023-10-17T03:40:36.033Z,7.89
2023-10-17T03:43:12.872Z,7.88
2023-10-17T03:45:54.000Z,7.93
2023-10-17T03:48:24.310Z,7.90
2023-10-17T03:51:09.801Z,7.93
2023-10-17T03:53:48.839Z,7.92
2023-10-17T03:56:36.766Z,7.93
2023-10-17T03:59:15.353Z,7.98
2023-10-17T04:01:46.478Z,8.00
2023-10-17T04:04:25.019Z,8.02
2023-10-17T04:06:57.333Z,8.04
2023-10-17T04:09:29.102Z,8.06
2023-10-17T04:12:04.916Z,8.06
2023-10-17T04:14:51.482Z,8.05
2023-10-17T04:17:24.425Z,8.00
2023-10-17T04:19:52.812Z,7.98
2023-10-17T04:22:22.509Z,8.01
2023-10-17T04:24:50.948Z,8.01
2023-10-17T04:27:18.080Z,8.03
2023-10-17T04:29:51.158Z,8.04
2023-10-17T04:32:18.864Z,8.06
2023-10-17T04:34:48.276Z,8.07
2023-10-17T04:37:25.560Z,8.06
2023-10-17T04:40:18.999Z,8.05
2023-10-17T04:42:56.577Z,8.00
2023-10-17T04:45:25.617Z,8.00
2023-10-17T04:48:24.826Z,7.97
2023-10-17T04:50:59.424Z,7.98
2023-10-17T04:53:36.889Z,8.00
2023-10-17T04:56:12.991Z,8.01
2023-10-17T04:58:58.658Z,8.03
2023-10-17T05:01:41.310Z,8.02
2023-10-17T05:04:22.223Z,8.03
2023-10-17T05:06:57.826Z,8.06
2023-10-17T05:09:45.983Z,8.06
2023-10-17T05:12:38.775Z,8.04
2023-10-17T05:15:24.511Z,8.02
2023-10-17T05:18:09.551Z,8.01
2023-10-17T05:20:54.894Z,8.02
2023-10-17T05:23:40.142Z,8.04
2023-10-17T05:26:26.579Z,7.98
2023-10-17T05:29:13.242Z,7.99
2023-10-17T05:32:00.495Z,8.01
2023-10-17T05:34:48.861Z,7.99
2023-10-17T05:37:33.880Z,8.00
2023-10-17T05:40:20.678Z,8.01
2023-10-17T05:43:06.912Z,7.99
2023-10-17T05:45:52.590Z,7.96
2023-10-17T05:48:38.132Z,7.95
2023-10-17T05:51:23.977Z,7.89
2023-10-17T05:54:37.007Z,7.92
2023-10-17T05:57:18.044Z,7.96
2023-10-17T06:00:03.183Z,7.99
2023-10-17T06:02:48.484Z,8.04
2023-10-17T06:05:33.640Z,8.04
2023-10-17T06:08:18.590Z,8.06
2023-10-17T06:11:03.998Z,8.07
2023-10-17T06:13:58.677Z,8.07
2023-10-17T06:16:43.848Z,8.11
2023-10-17T06:19:16.729Z,8.12
2023-10-17T06:22:01.732Z,8.14
2023-10-17T06:24:45.151Z,8.12
2023-10-17T06:27:15.510Z,8.14
2023-10-17T06:29:41.922Z,8.15
2023-10-17T06:32:18.109Z,8.17
2023-10-17T06:34:46.303Z,8.22
2023-10-17T06:37:21.465Z,8.25
2023-10-17T06:39:51.140Z,8.30
2023-10-17T06:42:33.979Z,8.31
2023-10-17T06:45:08.274Z,8.40
2023-10-17T06:47:48.417Z,8.49
2023-10-17T06:50:16.153Z,8.53
2023-10-17T06:52:52.312Z,8.61
2023-10-17T06:55:30.262Z,8.68
2023-10-17T06:57:59.252Z,8.77
2023-10-17T07:00:29.224Z,8.86
2023-10-17T07:02:58.361Z,8.97
2023-10-17T07:05:25.915Z,9.07
2023-10-17T07:07:55.644Z,9.16
2023-10-17T07:10:25.020Z,9.25
2023-10-17T07:13:29.190Z,9.33
2023-10-17T07:15:56.046Z,9.40
2023-10-17T07:18:45.340Z,9.44
2023-10-17T07:21:15.592Z,9.53
2023-10-17T07:23:43.605Z,9.60
2023-10-17T07:26:29.808Z,9.62
2023-10-17T07:28:56.969Z,9.68
2023-10-17T07:31:24.432Z,9.73
2023-10-17T07:34:08.420Z,9.73
2023-10-17T07:36:36.561Z,9.73
2023-10-17T07:39:17.495Z,9.69
2023-10-17T07:41:54.142Z,9.72
2023-10-17T07:44:27.174Z,9.81
2023-10-17T07:47:09.444Z,9.91
2023-10-17T07:49:42.419Z,10.02
2023-10-17T07:52:16.986Z,10.14
2023-10-17T07:54:47.564Z,10.25
2023-10-17T07:57:24.497Z,10.33
2023-10-17T07:59:59.928Z,10.33
2023-10-17T08:02:32.067Z,10.26
2023-10-17T08:05:18.165Z,10.34
2023-10-17T08:07:50.582Z,10.45
2023-10-17T08:10:36.907Z,10.51
2023-10-17T08:13:03.921Z,10.58
2023-10-17T08:15:53.999Z,10.72
2023-10-17T08:18:24.646Z,10.79
2023-10-17T08:21:00.512Z,10.72
2023-10-17T08:23:27.538Z,10.89
2023-10-17T08:26:01.619Z,10.88
2023-10-17T08:28:47.668Z,10.87
2023-10-17T08:31:24.544Z,10.91
2023-10-17T08:34:05.797Z,10.90
2023-10-17T08:36:42.702Z,10.97
2023-10-17T08:39:29.454Z,11.08
2023-10-17T08:42:03.570Z,11.09
2023-10-17T08:44:33.379Z,11.19
2023-10-17T08:47:00.902Z,11.39
2023-10-17T08:49:33.059Z,11.45
2023-10-17T08:52:00.197Z,11.27
2023-10-17T08:54:30.527Z,11.36
2023-10-17T08:57:04.384Z,11.57
2023-10-17T08:59:52.064Z,11.54
2023-10-17T09:02:25.285Z,11.68
2023-10-17T09:04:51.868Z,11.46
2023-10-17T09:07:33.071Z,11.40
2023-10-17T09:10:06.214Z,11.17
2023-10-17T09:12:47.313Z,11.25
2023-10-17T09:15:33.937Z,11.43
2023-10-17T09:18:22.349Z,11.43
2023-10-17T09:20:51.286Z,11.35
2023-10-17T09:23:24.654Z,11.50
2023-10-17T09:26:00.091Z,11.67
2023-10-17T09:28:27.345Z,11.82
2023-10-17T09:31:06.205Z,11.75
2023-10-17T09:33:34.058Z,11.58
2023-10-17T09:36:05.448Z,11.61
2023-10-17T09:38:35.840Z,11.82
2023-10-17T09:41:15.918Z,12.04
2023-10-17T09:43:46.668Z,12.19
2023-10-17T09:46:14.040Z,12.24
2023-10-17T09:48:47.189Z,11.85
2023-10-17T09:51:23.016Z,11.87
2023-10-17T09:53:59.946Z,11.95
2023-10-17T09:56:38.399Z,12.37
2023-10-17T09:59:08.215Z,12.75
2023-10-17T10:01:36.460Z,13.11
2023-10-17T10:04:03.791Z,13.19
2023-10-17T10:06:32.289Z,13.53
2023-10-17T10:09:02.225Z,13.53
2023-10-17T10:11:50.700Z,13.33
2023-10-17T10:14:51.135Z,12.93
2023-10-17T10:17:18.569Z,12.92
2023-10-17T10:19:45.130Z,12.82
2023-10-17T10:22:13.918Z,12.57
2023-10-17T10:24:42.267Z,12.13
2023-10-17T10:27:28.394Z,12.03
2023-10-17T10:30:19.511Z,12.07
2023-10-17T10:32:47.715Z,11.25
2023-10-17T10:35:16.512Z,11.01
2023-10-17T10:37:50.984Z,10.90
2023-10-17T10:40:33.354Z,10.77
2023-10-17T10:43:02.623Z,10.93
2023-10-17T10:45:37.718Z,11.18
2023-10-17T10:48:13.366Z,11.15
2023-10-17T10:50:42.337Z,11.28
2023-10-17T10:53:24.362Z,11.37
2023-10-17T10:56:02.563Z,11.36
2023-10-17T10:58:30.977Z,11.70
2023-10-17T11:01:03.746Z,11.98
2023-10-17T11:03:33.668Z,12.07
2023-10-17T11:06:05.309Z,12.11
2023-10-17T11:08:38.867Z,12.00
2023-10-17T11:11:06.692Z,11.94
2023-10-17T11:13:43.738Z,11.94
2023-10-17T11:16:10.644Z,12.24
2023-10-17T11:18:41.184Z,12.21
2023-10-17T11:21:10.972Z,12.32
2023-10-17T11:23:42.864Z,12.54
2023-10-17T11:26:27.577Z,12.55
2023-10-17T11:28:55.408Z,12.65
2023-10-17T11:31:26.515Z,12.69
2023-10-17T11:34:04.729Z,12.31
2023-10-17T11:36:53.586Z,11.96
2023-10-17T11:39:21.528Z,11.72
2023-10-17T11:41:54.480Z,11.93
2023-10-17T11:44:26.351Z,11.87
2023-10-17T11:46:57.419Z,11.75
2023-10-17T11:49:31.883Z,11.73
2023-10-17T11:52:10.889Z,11.94
2023-10-17T11:55:14.582Z,11.98
2023-10-17T11:57:42.099Z,11.94
2023-10-17T12:00:17.895Z,11.88
2023-10-17T12:02:51.314Z,11.73
2023-10-17T12:05:23.461Z,11.69
2023-10-17T12:07:55.190Z,11.66
2023-10-17T12:10:22.935Z,11.75
2023-10-17T12:12:53.525Z,11.99
2023-10-17T12:15:23.185Z,12.11
2023-10-17T12:17:51.373Z,12.19
2023-10-17T12:20:19.033Z,12.29
2023-10-17T12:22:45.724Z,12.66
2023-10-17T12:25:17.441Z,12.85
2023-10-17T12:27:47.664Z,13.13
2023-10-17T12:30:23.688Z,13.57
2023-10-17T12:32:50.416Z,13.64
2023-10-17T12:35:18.139Z,13.73
2023-10-17T12:37:45.096Z,13.30
2023-10-17T12:40:27.315Z,12.74
2023-10-17T12:42:57.065Z,12.22
2023-10-17T12:45:23.862Z,11.87
2023-10-17T12:47:51.483Z,11.64
2023-10-17T12:50:19.499Z,11.86
2023-10-17T12:52:46.505Z,12.15
2023-10-17T12:55:13.090Z,12.05
2023-10-17T12:57:40.677Z,12.16
2023-10-17T13:00:12.199Z,12.19
2023-10-17T13:02:42.408Z,12.14
2023-10-17T13:05:10.795Z,12.01
2023-10-17T13:07:38.580Z,11.78
2023-10-17T13:10:13.850Z,11.71
2023-10-17T13:12:42.279Z,11.74
2023-10-17T13:15:10.426Z,11.74
2023-10-17T13:17:37.356Z,11.61
2023-10-17T13:20:09.706Z,11.60
2023-10-17T13:22:48.543Z,11.77
2023-10-17T13:25:15.702Z,11.75
2023-10-17T13:27:42.705Z,11.73
2023-10-17T13:30:09.681Z,11.81
2023-10-17T13:32:36.266Z,11.93
2023-10-17T13:35:03.090Z,11.81
2023-10-17T13:37:29.685Z,11.93
2023-10-17T13:39:57.026Z,11.93
2023-10-17T13:42:25.016Z,12.12
2023-10-17T13:44:51.958Z,12.15
2023-10-17T13:47:22.138Z,12.24
2023-10-17T13:49:48.644Z,12.33
2023-10-17T13:52:18.904Z,12.09
2023-10-17T13:54:46.492Z,12.20
2023-10-17T13:57:13.864Z,12.14
2023-10-17T13:59:40.380Z,12.15
2023-10-17T14:02:07.764Z,12.02
2023-10-17T14:04:37.929Z,11.92
2023-10-17T14:07:08.102Z,11.83
2023-10-17T14:09:35.146Z,11.69
2023-10-17T14:12:01.869Z,11.68
2023-10-17T14:14:33.154Z,11.73
2023-10-17T14:16:59.992Z,11.75
2023-10-17T14:19:32.793Z,11.60
2023-10-17T14:22:14.585Z,11.63
2023-10-17T14:24:52.249Z,11.54
2023-10-17T14:27:24.485Z,11.39
2023-10-17T14:29:51.746Z,11.30
2023-10-17T14:32:19.616Z,11.23
2023-10-17T14:34:46.106Z,11.12
2023-10-17T14:37:15.168Z,11.06
2023-10-17T14:39:43.227Z,11.12
2023-10-17T14:42:11.878Z,11.15
2023-10-17T14:44:38.470Z,11.18
2023-10-17T14:47:07.301Z,11.19
2023-10-17T14:49:35.165Z,11.19
2023-10-17T14:52:01.807Z,11.17
2023-10-17T14:54:28.398Z,11.18
2023-10-17T14:56:55.527Z,11.18
2023-10-17T14:59:22.347Z,11.15
2023-10-17T15:01:49.016Z,11.15
2023-10-17T15:04:15.790Z,11.12
2023-10-17T15:06:42.887Z,11.08
2023-10-17T15:09:09.763Z,11.04
2023-10-17T15:11:36.387Z,11.01
2023-10-17T15:14:05.384Z,10.95
2023-10-17T15:16:32.845Z,10.90
2023-10-17T15:19:00.831Z,10.90
2023-10-17T15:21:36.941Z,10.81
2023-10-17T15:24:17.871Z,10.69
2023-10-17T15:26:44.457Z,10.64
2023-10-17T15:29:13.469Z,10.49
2023-10-17T15:31:40.333Z,10.42
2023-10-17T15:34:07.036Z,10.35
2023-10-17T15:36:34.130Z,10.27
2023-10-17T15:39:02.929Z,10.18
2023-10-17T15:41:29.502Z,10.08
2023-10-17T15:43:56.052Z,10.07
2023-10-17T15:46:25.877Z,10.02
2023-10-17T15:48:52.934Z,9.89
2023-10-17T15:51:21.252Z,9.77
2023-10-17T15:53:48.204Z,9.68
2023-10-17T15:56:15.186Z,9.57
2023-10-17T15:58:43.980Z,9.57
2023-10-17T16:01:14.630Z,9.45
2023-10-17T16:03:44.104Z,9.32
2023-10-17T16:06:11.286Z,9.18
2023-10-17T16:08:38.056Z,9.01
2023-10-17T16:11:04.900Z,8.89
2023-10-17T16:13:32.706Z,8.78
2023-10-17T16:16:00.624Z,8.63
2023-10-17T16:18:28.207Z,8.50
2023-10-17T16:20:55.042Z,8.40
2023-10-17T16:23:21.882Z,8.26
2023-10-17T16:25:53.723Z,8.17
2023-10-17T16:28:20.960Z,8.08
2023-10-17T16:30:49.194Z,7.97
2023-10-17T16:33:16.605Z,7.88
2023-10-17T16:35:45.591Z,7.78
2023-10-17T16:38:12.984Z,7.66
2023-10-17T16:40:44.931Z,7.60
2023-10-17T16:43:13.466Z,7.50
2023-10-17T16:45:47.696Z,7.47
2023-10-17T16:48:14.682Z,7.36
2023-10-17T16:50:48.718Z,7.29
2023-10-17T16:53:16.519Z,7.19
2023-10-17T16:55:43.379Z,7.12
2023-10-17T16:58:09.962Z,7.06
2023-10-17T17:00:37.466Z,6.95
2023-10-17T17:03:06.539Z,6.90
2023-10-17T17:05:33.573Z,6.83
2023-10-17T17:08:00.225Z,6.78
2023-10-17T17:10:26.997Z,6.76
2023-10-17T17:12:53.638Z,6.77
2023-10-17T17:15:20.306Z,6.73
2023-10-17T17:17:46.997Z,6.70
2023-10-17T17:20:16.285Z,6.66
2023-10-17T17:22:46.367Z,6.66
2023-10-17T17:25:18.908Z,6.63
2023-10-17T17:27:45.725Z,6.51
2023-10-17T17:30:20.582Z,6.46
2023-10-17T17:32:47.407Z,6.43
2023-10-17T17:35:14.083Z,6.42
2023-10-17T17:37:40.841Z,6.43
2023-10-17T17:40:08.689Z,6.40
2023-10-17T17:42:35.526Z,6.37
2023-10-17T17:45:05.276Z,6.32
2023-10-17T17:47:33.257Z,6.27
2023-10-17T17:49:59.857Z,6.22
2023-10-17T17:52:26.441Z,6.12
2023-10-17T17:54:53.291Z,6.07
2023-10-17T17:57:21.923Z,6.05
2023-10-17T17:59:50.141Z,6.09
2023-10-17T18:02:20.963Z,6.07
2023-10-17T18:04:47.687Z,6.08
2023-10-17T18:07:14.309Z,6.03
2023-10-17T18:09:41.010Z,5.98
2023-10-17T18:12:07.785Z,5.95
2023-10-17T18:14:36.823Z,5.89
2023-10-17T18:17:05.569Z,5.83
2023-10-17T18:19:32.750Z,5.79
2023-10-17T18:21:59.254Z,5.74
2023-10-17T18:24:25.935Z,5.68
2023-10-17T18:26:52.413Z,5.64
2023-10-17T18:29:21.482Z,5.60
2023-10-17T18:31:49.592Z,5.59
2023-10-17T18:34:16.154Z,5.59
2023-10-17T18:36:42.660Z,5.56
2023-10-17T18:39:09.771Z,5.52
2023-10-17T18:41:41.326Z,5.51
2023-10-17T18:44:08.651Z,5.46
2023-10-17T18:46:36.116Z,5.47
2023-10-17T18:49:04.342Z,5.44
2023-10-17T18:51:34.898Z,5.47
2023-10-17T18:54:01.929Z,5.44
2023-10-17T18:56:28.418Z,5.42
2023-10-17T18:58:54.940Z,5.44
2023-10-17T19:01:21.772Z,5.38
2023-10-17T19:03:48.481Z,5.32
2023-10-17T19:06:15.211Z,5.26
2023-10-17T19:08:43.351Z,5.28
2023-10-17T19:11:11.152Z,5.27
2023-10-17T19:13:41.259Z,5.29
2023-10-17T19:16:09.950Z,5.23
2023-10-17T19:18:37.298Z,5.22
2023-10-17T19:21:05.404Z,5.24
2023-10-17T19:23:31.953Z,5.23
2023-10-17T19:25:59.172Z,5.19
2023-10-17T19:28:26.053Z,5.12
2023-10-17T19:30:52.626Z,5.06
2023-10-17T19:33:19.632Z,5.09
2023-10-17T19:35:46.051Z,5.13
2023-10-17T19:38:14.438Z,5.12
2023-10-17T19:40:40.984Z,5.12
2023-10-17T19:43:08.718Z,5.10
2023-10-17T19:45:35.678Z,5.04
2023-10-17T19:48:03.869Z,5.05
2023-10-17T19:50:30.634Z,5.05
2023-10-17T19:52:57.675Z,5.02
2023-10-17T19:55:24.762Z,5.06
2023-10-17T19:57:53.843Z,5.07
2023-10-17T20:00:24.003Z,5.05
2023-10-17T20:02:51.793Z,5.01
2023-10-17T20:05:18.458Z,4.97
2023-10-17T20:07:48.952Z,4.99
2023-10-17T20:10:15.650Z,4.98
2023-10-17T20:12:42.648Z,4.91
2023-10-17T20:15:11.638Z,4.86
2023-10-17T20:17:38.917Z,4.85
2023-10-17T20:20:10.744Z,4.85
2023-10-17T20:22:38.221Z,4.88
2023-10-17T20:25:05.630Z,4.92
2023-10-17T20:27:32.501Z,4.89
2023-10-17T20:30:01.752Z,4.93
2023-10-17T20:32:29.340Z,4.99
2023-10-17T20:34:56.735Z,4.95
2023-10-17T20:37:23.300Z,4.84
2023-10-17T20:39:54.246Z,4.86
2023-10-17T20:42:20.863Z,4.84
2023-10-17T20:44:47.390Z,4.83
2023-10-17T20:47:13.919Z,4.78
2023-10-17T20:49:40.571Z,4.74
2023-10-17T20:52:13.624Z,4.69
2023-10-17T20:54:43.862Z,4.64
2023-10-17T20:57:11.064Z,4.62
2023-10-17T20:59:38.115Z,4.56
2023-10-17T21:02:05.035Z,4.53
2023-10-17T21:04:31.880Z,4.49
2023-10-17T21:07:00.509Z,4.41
2023-10-17T21:09:27.808Z,4.37
2023-10-17T21:11:54.958Z,4.33
2023-10-17T21:14:21.788Z,4.29
2023-10-17T21:16:54.344Z,4.22
2023-10-17T21:19:23.149Z,4.18
2023-10-17T21:21:49.912Z,4.18
2023-10-17T21:24:16.621Z,4.20
2023-10-17T21:26:43.656Z,4.16
2023-10-17T21:29:11.856Z,4.13
2023-10-17T21:31:39.191Z,4.12
2023-10-17T21:34:09.522Z,4.06
2023-10-17T21:36:36.759Z,3.97
2023-10-17T21:39:03.739Z,3.93
2023-10-17T21:41:30.270Z,3.85
2023-10-17T21:43:56.864Z,3.82
2023-10-17T21:46:23.435Z,3.78
2023-10-17T21:48:51.246Z,3.70
2023-10-17T21:51:20.703Z,3.75
2023-10-17T21:53:47.964Z,3.79
2023-10-17T21:56:16.206Z,3.86
2023-10-17T21:58:48.100Z,3.89
2023-10-17T22:01:23.084Z,3.89
2023-10-17T22:03:50.986Z,3.85
2023-10-17T22:06:19.769Z,3.82
2023-10-17T22:08:46.732Z,3.86
2023-10-17T22:11:17.275Z,3.84
2023-10-17T22:13:46.295Z,3.86
2023-10-17T22:16:15.159Z,3.87
2023-10-17T22:18:43.261Z,3.88
2023-10-17T22:21:13.788Z,3.91
2023-10-17T22:23:43.622Z,3.90
2023-10-17T22:26:10.990Z,3.88
2023-10-17T22:28:38.099Z,3.86
2023-10-17T22:31:05.119Z,3.87
2023-10-17T22:33:33.068Z,3.89
2023-10-17T22:35:59.636Z,3.91
2023-10-17T22:38:26.296Z,3.92
2023-10-17T22:40:54.623Z,3.95
2023-10-17T22:43:21.115Z,4.02
2023-10-17T22:45:48.829Z,4.06
2023-10-17T22:48:15.853Z,4.11
2023-10-17T22:50:45.371Z,4.17
2023-10-17T22:53:14.002Z,4.18
2023-10-17T22:55:41.565Z,4.25
2023-10-17T22:58:08.882Z,4.28
2023-10-17T23:00:38.014Z,4.28
2023-10-17T23:03:09.634Z,4.31
2023-10-17T23:05:36.483Z,4.29
2023-10-17T23:08:04.658Z,4.25
2023-10-17T23:10:31.260Z,4.27
2023-10-17T23:13:01.129Z,4.24
2023-10-17T23:15:27.841Z,4.19
2023-10-17T23:17:54.412Z,4.13
2023-10-17T23:20:21.670Z,4.07
2023-10-17T23:22:49.825Z,4.10
2023-10-17T23:25:18.075Z,4.12
2023-10-17T23:27:46.438Z,4.08
2023-10-17T23:30:19.866Z,4.06
2023-10-17T23:32:47.598Z,4.01
2023-10-17T23:35:16.413Z,3.97
2023-10-17T23:37:46.555Z,3.96
2023-10-17T23:40:15.627Z,3.90
2023-10-17T23:42:42.783Z,3.90
2023-10-17T23:45:10.452Z,3.83
2023-10-17T23:47:38.231Z,3.87
2023-10-17T23:50:17.156Z,3.85
2023-10-17T23:52:45.442Z,3.80
2023-10-17T23:55:13.014Z,3.76
2023-10-17T23:57:40.073Z,3.78
